Time;durP1;ratioP1;P1;durP2;ratioP2;P2;SDS_P1;SDS_P2;PMS_P1;PMS_P2;Temp;Humidity;BMP_temperature;BMP_pressure;BME280_temperature;BME280_humidity;BME280_pressure;Samples;Min_cycle;Max_cycle;Signal;HPM_P1;HPM_P2
2021/06/23 00:02:18;;;;;;;7.85;6.40;;;13.90;99.90;;;;;;5067721;28;20108;-71
2021/06/23 00:04:45;;;;;;;8.13;7.28;;;13.90;99.90;;;;;;5075669;28;20066;-71
2021/06/23 00:07:11;;;;;;;6.70;5.90;;;13.70;99.90;;;;;;5063705;28;20072;-71
2021/06/23 00:09:38;;;;;;;12.48;6.78;;;13.60;99.90;;;;;;5054565;28;20098;-71
2021/06/23 00:12:13;;;;;;;11.02;6.32;;;13.70;99.90;;;;;;5060323;28;20044;-71
2021/06/23 00:14:40;;;;;;;6.57;5.85;;;13.80;99.90;;;;;;5072018;28;20071;-71
2021/06/23 00:17:06;;;;;;;7.15;6.25;;;13.90;99.90;;;;;;5054824;28;20118;-71
2021/06/23 00:19:33;;;;;;;7.40;5.65;;;14.00;99.90;;;;;;5055549;28;20076;-70
2021/06/23 00:21:59;;;;;;;8.10;6.32;;;13.90;99.90;;;;;;5054917;28;20061;-71
2021/06/23 00:24:26;;;;;;;6.47;5.88;;;13.90;99.90;;;;;;5055230;28;20455;-71
2021/06/23 00:26:53;;;;;;;6.80;6.03;;;13.90;99.90;;;;;;5054583;28;20049;-70
2021/06/23 00:29:21;;;;;;;7.25;5.93;;;13.90;99.90;;;;;;5054911;28;20045;-71
2021/06/23 00:31:47;;;;;;;9.38;5.93;;;13.90;99.90;;;;;;5054987;28;20040;-72
2021/06/23 00:34:17;;;;;;;11.20;5.80;;;13.80;99.90;;;;;;5054992;28;20045;-71
2021/06/23 00:36:43;;;;;;;7.43;5.90;;;13.50;99.90;;;;;;5054348;28;20073;-71
2021/06/23 00:39:10;;;;;;;8.45;6.68;;;13.50;99.90;;;;;;5072544;28;20045;-71
2021/06/23 00:41:36;;;;;;;7.40;6.45;;;13.50;99.90;;;;;;5054576;28;20068;-71
2021/06/23 00:44:03;;;;;;;7.10;6.40;;;13.50;99.90;;;;;;5054394;28;20076;-71
2021/06/23 00:46:31;;;;;;;9.48;6.95;;;13.40;99.90;;;;;;5054532;28;20164;-70
2021/06/23 00:48:59;;;;;;;11.98;7.63;;;13.20;99.90;;;;;;5068062;28;20048;-70
2021/06/23 00:51:26;;;;;;;7.43;6.65;;;13.10;99.90;;;;;;5074595;28;20068;-71
2021/06/23 00:53:53;;;;;;;7.35;6.53;;;13.30;99.90;;;;;;5074750;28;20076;-71
2021/06/23 00:56:20;;;;;;;9.85;6.55;;;13.40;99.90;;;;;;5057799;28;20609;-71
2021/06/23 00:58:49;;;;;;;7.57;5.78;;;13.50;99.90;;;;;;5054302;28;20076;-71
2021/06/23 01:01:16;;;;;;;9.93;6.30;;;13.60;99.90;;;;;;5054913;28;20113;-71
2021/06/23 01:03:45;;;;;;;8.40;6.00;;;13.70;99.90;;;;;;5054687;28;20053;-70
2021/06/23 01:06:12;;;;;;;10.82;6.28;;;13.80;99.90;;;;;;5053625;28;20072;-71
2021/06/23 01:08:39;;;;;;;9.45;6.50;;;13.80;99.90;;;;;;5054002;28;20442;-71
2021/06/23 01:11:07;;;;;;;10.07;6.03;;;13.50;99.90;;;;;;5053431;28;20437;-70
2021/06/23 01:13:36;;;;;;;8.57;5.90;;;13.40;99.90;;;;;;5054311;28;20068;-71
2021/06/23 01:16:06;;;;;;;7.70;6.25;;;13.20;99.90;;;;;;5066045;28;20060;-70
2021/06/23 01:18:37;;;;;;;6.45;5.72;;;13.20;99.90;;;;;;5073935;28;20609;-71
2021/06/23 01:21:06;;;;;;;7.35;5.97;;;13.20;99.90;;;;;;5074220;28;20073;-71
2021/06/23 01:23:34;;;;;;;7.40;6.30;;;13.30;99.90;;;;;;5074102;28;20083;-71
2021/06/23 01:26:01;;;;;;;7.03;6.00;;;13.40;99.90;;;;;;5060651;28;20123;-71
2021/06/23 01:28:27;;;;;;;8.15;6.10;;;13.40;99.90;;;;;;5064442;28;20097;-71
2021/06/23 01:30:56;;;;;;;6.97;5.75;;;13.30;99.90;;;;;;5073892;28;20045;-72
2021/06/23 01:33:23;;;;;;;6.15;5.55;;;13.40;99.90;;;;;;5072622;28;20040;-70
2021/06/23 01:35:49;;;;;;;6.30;5.43;;;13.50;99.90;;;;;;5073383;28;20514;-70
2021/06/23 01:38:16;;;;;;;9.00;5.63;;;13.50;99.90;;;;;;5070635;28;20490;-70
2021/06/23 01:40:44;;;;;;;6.45;5.75;;;13.60;99.90;;;;;;5065051;28;20068;-70
2021/06/23 01:43:12;;;;;;;7.57;5.93;;;13.60;99.90;;;;;;5073972;28;20048;-71
2021/06/23 01:45:39;;;;;;;6.57;5.75;;;13.60;99.90;;;;;;5073159;28;20051;-70
2021/06/23 01:48:07;;;;;;;7.45;6.15;;;13.30;99.90;;;;;;5073492;28;20076;-71
2021/06/23 01:50:33;;;;;;;7.53;5.78;;;13.20;99.90;;;;;;5058483;28;20064;-71
2021/06/23 01:53:00;;;;;;;8.27;6.57;;;13.10;99.90;;;;;;5053346;28;20091;-70
2021/06/23 01:55:30;;;;;;;8.52;6.07;;;12.90;99.90;;;;;;5053396;28;20103;-71
2021/06/23 01:58:01;;;;;;;7.38;6.35;;;13.00;99.90;;;;;;5053693;28;20041;-71
2021/06/23 02:00:34;;;;;;;7.80;6.13;;;13.00;99.90;;;;;;5053600;28;20083;-70
2021/06/23 02:03:09;;;;;;;7.03;6.28;;;12.90;99.90;;;;;;5053406;28;20045;-70
2021/06/23 02:05:44;;;;;;;7.28;6.63;;;12.90;99.90;;;;;;5052972;28;20076;-70
2021/06/23 02:08:20;;;;;;;10.45;6.32;;;13.00;99.90;;;;;;5052207;28;20052;-70
2021/06/23 02:11:10;;;;;;;7.68;6.30;;;13.10;99.90;;;;;;5050440;28;20052;-71
2021/06/23 02:14:14;;;;;;;10.50;6.75;;;13.20;99.90;;;;;;5045249;28;20492;-70
2021/06/23 02:16:41;;;;;;;7.03;5.85;;;13.20;99.90;;;;;;5043990;28;20082;-71
2021/06/23 02:19:09;;;;;;;5.70;5.15;;;13.30;99.90;;;;;;5052051;28;20088;-71
2021/06/23 02:21:37;;;;;;;8.18;5.35;;;13.30;99.90;;;;;;5052623;28;20041;-70
2021/06/23 02:24:05;;;;;;;9.15;5.20;;;13.30;99.90;;;;;;5051960;28;20071;-70
2021/06/23 02:26:32;;;;;;;7.68;6.50;;;13.30;99.90;;;;;;5051988;28;20103;-70
2021/06/23 02:29:00;;;;;;;9.23;7.03;;;13.30;99.90;;;;;;5052027;28;20056;-70
2021/06/23 02:31:29;;;;;;;7.38;6.10;;;13.30;99.90;;;;;;5049977;28;20041;-70
2021/06/23 02:33:57;;;;;;;8.30;5.88;;;13.10;99.90;;;;;;5052782;28;20069;-69
2021/06/23 02:36:24;;;;;;;7.03;6.07;;;12.90;99.90;;;;;;5052494;28;20102;-72
2021/06/23 02:38:51;;;;;;;10.48;6.28;;;12.80;99.90;;;;;;5052438;28;20106;-72
2021/06/23 02:41:19;;;;;;;7.63;5.88;;;12.90;99.90;;;;;;5052665;28;20072;-74
2021/06/23 02:43:46;;;;;;;7.88;6.40;;;12.80;99.90;;;;;;5053073;28;20095;-76
2021/06/23 02:46:14;;;;;;;8.68;6.53;;;12.70;99.90;;;;;;5052544;28;20075;-76
2021/06/23 02:48:41;;;;;;;7.88;6.05;;;12.80;99.90;;;;;;5052520;28;20077;-76
2021/06/23 02:51:13;;;;;;;6.65;5.95;;;12.70;99.90;;;;;;5052429;28;20072;-76
2021/06/23 02:53:40;;;;;;;6.32;5.72;;;12.50;99.90;;;;;;5052795;28;20044;-76
2021/06/23 02:56:07;;;;;;;8.32;6.35;;;12.40;99.90;;;;;;5052372;28;20070;-76
2021/06/23 02:58:34;;;;;;;8.23;6.07;;;12.30;99.90;;;;;;5052078;28;20045;-76
2021/06/23 03:01:02;;;;;;;7.68;6.72;;;12.50;99.90;;;;;;5052349;28;20493;-76
2021/06/23 03:03:29;;;;;;;8.95;6.63;;;12.60;99.90;;;;;;5052141;28;20049;-76
2021/06/23 03:05:56;;;;;;;10.82;6.68;;;12.70;99.90;;;;;;5052393;28;20072;-76
2021/06/23 03:08:23;;;;;;;7.00;6.28;;;12.80;99.90;;;;;;5052024;28;20103;-77
2021/06/23 03:10:49;;;;;;;8.13;5.72;;;12.80;99.90;;;;;;5052234;28;20456;-77
2021/06/23 03:13:16;;;;;;;9.05;6.10;;;12.90;99.90;;;;;;5052331;28;20073;-76
2021/06/23 03:15:42;;;;;;;7.82;5.90;;;13.00;99.90;;;;;;5052075;28;20083;-76
2021/06/23 03:18:09;;;;;;;8.07;6.90;;;13.10;99.90;;;;;;5052029;28;20124;-77
2021/06/23 03:20:37;;;;;;;7.22;6.10;;;13.20;99.90;;;;;;5052162;28;20045;-77
2021/06/23 03:23:04;;;;;;;6.30;5.70;;;13.30;99.90;;;;;;5052953;28;20073;-77
2021/06/23 03:28:15;;;;;;;7.93;5.75;;;13.60;99.90;;;;;;5052292;28;20044;-77
2021/06/23 03:30:42;;;;;;;5.60;4.95;;;13.70;99.90;;;;;;5053042;28;20135;-77
2021/06/23 03:33:09;;;;;;;7.70;6.50;;;13.70;99.90;;;;;;5052444;28;20107;-76
2021/06/23 03:35:37;;;;;;;8.40;6.70;;;13.60;99.90;;;;;;5052549;28;20052;-77
2021/06/23 03:38:04;;;;;;;6.93;5.75;;;13.80;99.90;;;;;;5052640;28;20075;-77
2021/06/23 03:40:30;;;;;;;8.00;5.70;;;14.00;99.90;;;;;;5052746;28;20098;-78
2021/06/23 03:42:59;;;;;;;8.02;6.38;;;14.10;99.90;;;;;;5052684;28;20049;-78
2021/06/23 03:45:26;;;;;;;8.13;6.10;;;14.20;99.90;;;;;;5052465;28;20547;-77
2021/06/23 03:47:53;;;;;;;6.45;5.82;;;14.20;99.90;;;;;;5052038;28;20269;-77
2021/06/23 03:50:23;;;;;;;7.60;6.22;;;14.30;99.90;;;;;;5052066;28;20433;-77
2021/06/23 03:53:03;;;;;;;7.07;5.78;;;14.40;99.90;;;;;;5052211;28;20110;-77
2021/06/23 03:55:31;;;;;;;11.52;7.82;;;14.40;99.90;;;;;;5052419;28;20041;-77
2021/06/23 03:57:58;;;;;;;10.15;8.27;;;14.30;99.90;;;;;;5052463;28;20723;-78
2021/06/23 04:00:26;;;;;;;9.77;8.18;;;14.30;99.90;;;;;;5051672;28;20497;-77
2021/06/23 04:02:53;;;;;;;15.10;12.02;;;14.40;99.90;;;;;;5052815;28;20045;-77
2021/06/23 04:05:20;;;;;;;9.50;8.48;;;14.30;99.90;;;;;;5052102;28;20045;-76
2021/06/23 04:07:47;;;;;;;12.70;6.65;;;14.20;99.90;;;;;;5051839;28;20103;-77
2021/06/23 04:10:17;;;;;;;9.38;7.13;;;14.20;99.90;;;;;;5052658;28;20048;-78
2021/06/23 04:12:44;;;;;;;14.23;8.40;;;14.20;99.90;;;;;;5052687;28;20049;-76
2021/06/23 04:15:13;;;;;;;10.85;7.78;;;14.00;99.90;;;;;;5052794;28;20052;-78
2021/06/23 04:17:40;;;;;;;10.40;7.38;;;14.00;99.90;;;;;;5052418;28;20049;-76
2021/06/23 04:20:08;;;;;;;34.25;22.10;;;14.10;99.90;;;;;;5052292;28;20417;-78
2021/06/23 04:22:35;;;;;;;6.97;6.38;;;14.10;99.90;;;;;;5053378;28;20052;-78
2021/06/23 04:25:05;;;;;;;10.02;8.52;;;14.20;99.90;;;;;;5053409;28;20045;-77
2021/06/23 04:27:33;;;;;;;9.43;7.20;;;14.30;99.90;;;;;;5052106;28;20102;-79
2021/06/23 04:29:59;;;;;;;8.85;7.45;;;14.40;99.90;;;;;;5052340;28;20049;-77
2021/06/23 04:32:26;;;;;;;11.70;8.13;;;14.60;99.90;;;;;;5054899;28;20045;-79
2021/06/23 04:34:53;;;;;;;11.98;8.00;;;14.80;99.90;;;;;;5055672;28;20072;-77
2021/06/23 04:37:19;;;;;;;9.55;7.72;;;15.20;99.90;;;;;;5055652;28;20091;-77
2021/06/23 04:39:48;;;;;;;9.52;7.70;;;15.30;99.90;;;;;;5056301;28;20041;-77
2021/06/23 04:42:15;;;;;;;10.15;7.20;;;15.40;99.90;;;;;;5056081;28;20102;-78
2021/06/23 04:44:43;;;;;;;9.38;7.78;;;15.60;99.90;;;;;;5055736;28;20069;-78
2021/06/23 04:47:09;;;;;;;7.78;6.68;;;15.80;99.90;;;;;;5055057;28;20072;-79
2021/06/23 04:49:36;;;;;;;12.10;7.57;;;15.80;99.90;;;;;;5055393;28;20497;-78
2021/06/23 04:52:04;;;;;;;8.05;7.03;;;15.90;99.90;;;;;;5055215;28;20052;-78
2021/06/23 04:54:30;;;;;;;12.02;7.43;;;16.00;99.90;;;;;;5055845;28;20076;-79
2021/06/23 04:56:58;;;;;;;7.82;6.60;;;16.10;99.90;;;;;;5055241;28;20106;-78
2021/06/23 04:59:24;;;;;;;8.82;6.38;;;16.20;99.90;;;;;;5055697;28;20119;-78
2021/06/23 05:01:52;;;;;;;8.43;7.53;;;16.30;99.90;;;;;;5055248;28;20053;-77
2021/06/23 05:04:36;;;;;;;25.77;17.42;;;16.40;99.90;;;;;;5059260;28;20071;-79
2021/06/23 05:07:07;;;;;;;7.97;6.40;;;16.50;99.90;;;;;;5054889;28;20111;-77
2021/06/23 05:12:22;;;;;;;7.30;6.13;;;16.80;99.90;;;;;;5003093;23;20054;-78
2021/06/23 05:14:49;;;;;;;10.70;6.57;;;17.00;99.90;;;;;;4995465;28;20050;-78
2021/06/23 05:17:17;;;;;;;8.35;6.50;;;17.40;99.90;;;;;;4994924;28;20482;-77
2021/06/23 05:19:43;;;;;;;8.50;7.47;;;17.60;99.90;;;;;;4996165;28;20105;-77
2021/06/23 05:22:13;;;;;;;8.35;6.47;;;17.80;99.90;;;;;;4995858;28;20054;-77
2021/06/23 05:24:47;;;;;;;10.90;7.03;;;18.00;99.90;;;;;;4995570;28;20081;-78
2021/06/23 05:27:19;;;;;;;8.68;6.65;;;18.10;99.90;;;;;;4995274;28;20057;-77
2021/06/23 05:29:47;;;;;;;7.18;5.82;;;18.20;99.90;;;;;;4995421;28;20042;-77
2021/06/23 05:32:26;;;;;;;10.30;6.45;;;18.30;99.90;;;;;;4995778;28;20398;-77
2021/06/23 05:34:52;;;;;;;22.23;14.20;;;18.40;99.90;;;;;;4994755;28;20053;-76
2021/06/23 05:37:26;;;;;;;12.20;8.40;;;18.50;99.90;;;;;;4995023;28;20058;-78
2021/06/23 05:40:01;;;;;;;9.05;4.90;;;18.70;99.90;;;;;;4996035;28;20101;-77
2021/06/23 05:42:30;;;;;;;25.10;15.85;;;18.90;99.90;;;;;;4995817;28;20486;-77
2021/06/23 05:44:57;;;;;;;12.00;7.10;;;19.00;99.90;;;;;;4994544;28;20454;-77
2021/06/23 05:47:38;;;;;;;5.15;4.65;;;19.20;99.90;;;;;;4994421;28;20124;-77
2021/06/23 05:50:07;;;;;;;6.70;5.03;;;19.40;99.90;;;;;;4994567;28;20486;-77
2021/06/23 05:52:34;;;;;;;8.48;6.13;;;19.50;99.90;;;;;;4994781;28;20073;-77
2021/06/23 05:55:01;;;;;;;13.63;10.23;;;19.70;99.90;;;;;;4995404;28;20074;-77
2021/06/23 05:57:30;;;;;;;13.15;8.10;;;19.90;99.90;;;;;;4994599;28;20458;-77
2021/06/23 06:00:08;;;;;;;8.80;6.27;;;19.90;99.90;;;;;;4994572;28;20050;-78
2021/06/23 06:02:36;;;;;;;6.68;5.93;;;20.10;99.90;;;;;;4995044;28;20651;-77
2021/06/23 06:05:03;;;;;;;10.73;6.03;;;20.40;99.90;;;;;;4994506;28;20046;-77
2021/06/23 06:07:30;;;;;;;9.02;6.78;;;20.60;99.90;;;;;;4994344;28;20047;-77
2021/06/23 06:09:56;;;;;;;5.53;4.53;;;20.90;99.90;;;;;;4994548;28;20097;-77
2021/06/23 06:12:23;;;;;;;6.53;5.60;;;21.10;99.90;;;;;;4995499;28;20388;-78
2021/06/23 06:14:52;;;;;;;6.55;5.10;;;21.00;99.90;;;;;;4994290;28;20494;-77
2021/06/23 06:17:19;;;;;;;8.90;5.85;;;21.10;99.90;;;;;;4994691;28;20183;-77
2021/06/23 06:19:53;;;;;;;6.78;5.45;;;21.20;99.90;;;;;;4994518;28;20100;-76
2021/06/23 06:22:19;;;;;;;8.52;5.40;;;21.40;99.90;;;;;;4994756;28;20462;-77
2021/06/23 06:24:46;;;;;;;4.75;3.75;;;21.30;99.90;;;;;;4994393;28;20495;-77
2021/06/23 06:27:12;;;;;;;6.35;4.95;;;21.20;99.90;;;;;;4993777;28;20514;-78
2021/06/23 06:29:39;;;;;;;8.55;6.05;;;21.30;99.90;;;;;;4994360;28;20386;-77
2021/06/23 06:32:21;;;;;;;6.50;5.10;;;21.40;99.90;;;;;;5020903;23;20057;-78
2021/06/23 06:34:48;;;;;;;13.80;8.20;;;21.30;99.90;;;;;;5013343;28;20053;-76
2021/06/23 06:37:15;;;;;;;5.50;3.72;;;21.60;99.90;;;;;;5012932;28;20052;-77
2021/06/23 06:39:42;;;;;;;5.65;5.00;;;21.80;99.90;;;;;;5013579;28;20395;-77
2021/06/23 06:42:09;;;;;;;7.43;4.22;;;22.20;99.90;;;;;;5013516;28;20490;-77
2021/06/23 06:47:16;;;;;;;6.90;4.47;;;22.70;99.90;;;;;;5012676;28;20103;-77
2021/06/23 06:49:47;;;;;;;5.30;4.50;;;23.10;99.90;;;;;;5014097;28;20312;-77
2021/06/23 06:52:22;;;;;;;4.47;3.85;;;23.10;99.90;;;;;;5013153;28;20127;-77
2021/06/23 06:54:49;;;;;;;8.30;7.15;;;22.90;99.90;;;;;;5012534;28;20065;-77
2021/06/23 06:57:15;;;;;;;7.53;5.60;;;22.60;99.90;;;;;;5012863;28;20096;-77
2021/06/23 06:59:42;;;;;;;12.82;7.25;;;22.80;99.90;;;;;;5013265;28;20054;-77
2021/06/23 07:02:09;;;;;;;17.30;11.18;;;22.70;99.90;;;;;;5013527;28;20066;-77
2021/06/23 07:04:37;;;;;;;7.70;5.55;;;22.90;99.90;;;;;;5013381;28;20046;-77
2021/06/23 07:07:04;;;;;;;6.35;3.67;;;22.80;99.90;;;;;;5012979;28;20108;-77
2021/06/23 07:09:32;;;;;;;10.32;7.80;;;22.60;99.90;;;;;;5013315;28;20060;-76
2021/06/23 07:12:11;;;;;;;9.23;6.47;;;22.50;99.90;;;;;;5012232;28;20077;-77
2021/06/23 07:14:39;;;;;;;8.95;5.63;;;22.50;99.90;;;;;;5013226;28;20054;-77
2021/06/23 07:17:06;;;;;;;5.70;4.03;;;22.50;99.90;;;;;;5012942;28;20135;-77
2021/06/23 07:19:47;;;;;;;6.70;4.78;;;22.40;99.90;;;;;;5012798;28;20132;-77
2021/06/23 07:22:26;;;;;;;6.18;4.00;;;22.30;99.90;;;;;;5013134;28;20417;-76
2021/06/23 07:24:55;;;;;;;4.05;3.65;;;22.60;99.90;;;;;;5013177;28;20100;-77
2021/06/23 07:27:22;;;;;;;6.82;3.75;;;22.90;99.70;;;;;;5013104;28;20046;-77
2021/06/23 07:38:07;;;;;;;7.78;3.70;;;24.30;94.80;;;;;;5012699;28;20108;-77
2021/06/23 07:40:51;;;;;;;6.05;4.40;;;24.60;93.10;;;;;;5013567;28;20046;-76
2021/06/23 07:43:23;;;;;;;4.82;3.55;;;24.60;92.50;;;;;;5013598;28;20474;-77
2021/06/23 07:45:53;;;;;;;14.73;9.25;;;25.10;91.00;;;;;;5013294;28;20073;-78
2021/06/23 07:48:30;;;;;;;8.02;4.55;;;25.50;89.20;;;;;;5013038;28;20042;-77
2021/06/23 07:51:05;;;;;;;4.43;4.05;;;25.60;89.00;;;;;;5013028;28;20069;-77
2021/06/23 07:53:53;;;;;;;7.18;4.95;;;25.80;86.50;;;;;;5012574;28;20042;-78
2021/06/23 07:56:27;;;;;;;3.45;3.22;;;26.20;84.60;;;;;;5012330;28;20046;-77
2021/06/23 08:02:19;;;;;;;7.10;3.90;;;26.30;83.30;;;;;;5012126;28;20057;-76
2021/06/23 08:10:11;;;;;;;7.45;5.57;;;26.00;77.70;;;;;;5015807;28;20123;-76
2021/06/23 08:12:45;;;;;;;6.53;4.97;;;26.10;79.20;;;;;;5016282;28;20488;-76
2021/06/23 08:15:18;;;;;;;7.63;4.75;;;25.80;81.50;;;;;;5016475;28;20042;-77
2021/06/23 08:18:06;;;;;;;6.05;4.97;;;25.50;80.70;;;;;;5017356;28;20050;-76
2021/06/23 08:20:37;;;;;;;4.85;4.03;;;26.10;80.20;;;;;;5016921;28;20128;-77
2021/06/23 08:23:05;;;;;;;3.65;3.30;;;26.60;78.80;;;;;;5017236;28;20123;-77
2021/06/23 08:25:46;;;;;;;6.18;3.72;;;27.20;77.00;;;;;;5016827;28;20119;-78
2021/06/23 08:28:17;;;;;;;5.25;3.92;;;27.70;73.20;;;;;;5016893;28;20052;-77
2021/06/23 08:30:43;;;;;;;6.93;4.47;;;27.70;70.20;;;;;;5015663;28;20194;-77
2021/06/23 08:33:25;;;;;;;4.30;3.50;;;27.70;69.90;;;;;;5017407;28;20490;-77
2021/06/23 08:35:53;;;;;;;10.75;5.93;;;26.90;69.50;;;;;;5016321;28;20128;-76
2021/06/23 08:38:21;;;;;;;4.30;3.53;;;26.10;72.70;;;;;;5015617;28;20564;-77
2021/06/23 08:40:48;;;;;;;5.97;3.10;;;25.50;74.60;;;;;;5015760;28;20085;-77
2021/06/23 08:43:18;;;;;;;5.43;3.17;;;25.20;75.50;;;;;;5016257;28;20050;-78
2021/06/23 08:45:45;;;;;;;11.00;5.20;;;25.20;76.40;;;;;;5015856;28;20046;-76
2021/06/23 08:48:12;;;;;;;6.35;3.65;;;25.30;78.30;;;;;;5016160;28;20452;-77
2021/06/23 08:50:40;;;;;;;5.13;3.72;;;25.20;77.70;;;;;;5016275;28;20068;-78
2021/06/23 08:53:07;;;;;;;17.08;12.50;;;25.10;77.20;;;;;;5016397;28;20046;-78
2021/06/23 08:55:34;;;;;;;10.18;6.45;;;24.60;79.10;;;;;;5016617;28;20141;-77
2021/06/23 08:58:01;;;;;;;8.13;3.97;;;24.70;79.50;;;;;;5016102;28;20045;-77
2021/06/23 09:00:29;;;;;;;6.35;4.82;;;25.10;77.80;;;;;;5015400;28;20108;-77
2021/06/23 09:03:01;;;;;;;11.25;8.63;;;25.00;76.00;;;;;;5015308;28;20046;-76
2021/06/23 09:05:27;;;;;;;7.32;5.10;;;24.40;78.50;;;;;;5015759;28;20060;-77
2021/06/23 09:07:59;;;;;;;5.93;3.97;;;24.60;79.20;;;;;;5015987;28;20491;-77
2021/06/23 09:10:36;;;;;;;10.60;5.80;;;24.60;79.50;;;;;;5016751;28;20049;-77
2021/06/23 09:13:17;;;;;;;7.70;5.22;;;24.80;79.00;;;;;;5016344;28;20405;-77
2021/06/23 09:15:52;;;;;;;10.55;8.43;;;24.80;78.50;;;;;;5015648;28;20375;-77
2021/06/23 09:18:21;;;;;;;8.52;4.95;;;25.00;77.80;;;;;;5014615;28;20103;-78
2021/06/23 09:20:54;;;;;;;10.07;4.95;;;24.90;80.30;;;;;;5015494;28;20046;-77
2021/06/23 09:23:39;;;;;;;7.38;4.50;;;25.00;78.20;;;;;;5015936;28;20069;-78
2021/06/23 09:26:14;;;;;;;11.48;7.28;;;24.80;77.80;;;;;;5015482;28;20046;-77
2021/06/23 09:28:42;;;;;;;7.85;4.40;;;24.80;78.10;;;;;;5015731;28;20056;-78
2021/06/23 09:31:13;;;;;;;7.13;4.35;;;24.90;78.00;;;;;;5015404;28;20046;-77
2021/06/23 09:33:40;;;;;;;5.40;4.38;;;25.30;76.60;;;;;;5015644;28;20341;-77
2021/06/23 09:36:08;;;;;;;5.05;3.58;;;25.60;75.00;;;;;;5015740;28;20046;-76
2021/06/23 09:38:57;;;;;;;5.20;3.28;;;26.00;76.10;;;;;;5015410;28;20050;-78
2021/06/23 09:41:27;;;;;;;6.65;3.78;;;25.80;72.80;;;;;;5014870;28;20050;-77
2021/06/23 09:44:00;;;;;;;7.10;3.37;;;26.70;73.00;;;;;;5014918;28;20124;-77
2021/06/23 09:46:41;;;;;;;5.00;4.18;;;26.90;70.10;;;;;;5014659;28;20054;-77
2021/06/23 09:49:12;;;;;;;6.30;3.60;;;26.80;69.80;;;;;;5014999;28;20057;-77
2021/06/23 09:51:47;;;;;;;9.38;6.60;;;26.70;71.60;;;;;;5015320;28;20123;-78
2021/06/23 09:54:17;;;;;;;4.60;3.65;;;26.80;71.80;;;;;;5014804;28;20445;-78
2021/06/23 09:56:45;;;;;;;9.45;4.45;;;27.30;68.40;;;;;;5015507;28;20052;-78
2021/06/23 09:59:25;;;;;;;10.70;6.28;;;27.50;68.00;;;;;;5015509;28;20145;-77
2021/06/23 10:01:53;;;;;;;10.93;6.57;;;28.00;65.20;;;;;;5015151;28;20419;-77
2021/06/23 10:04:20;;;;;;;5.40;4.90;;;28.30;65.50;;;;;;5013736;28;20050;-77
2021/06/23 10:06:46;;;;;;;9.45;3.65;;;28.40;65.50;;;;;;5015565;28;20049;-77
2021/06/23 10:09:18;;;;;;;8.10;4.85;;;28.50;64.70;;;;;;5014629;28;20107;-76
2021/06/23 10:11:49;;;;;;;7.78;5.07;;;28.10;63.20;;;;;;5014969;28;20053;-78
2021/06/23 10:14:15;;;;;;;11.65;7.55;;;27.60;65.40;;;;;;5015418;28;20049;-77
2021/06/23 10:16:43;;;;;;;21.50;14.32;;;27.50;65.20;;;;;;5014900;28;20077;-77
2021/06/23 10:19:11;;;;;;;7.20;6.40;;;27.30;63.70;;;;;;5014879;28;20058;-78
2021/06/23 10:21:41;;;;;;;7.55;6.18;;;26.80;64.70;;;;;;5013965;28;20096;-77
2021/06/23 10:24:10;;;;;;;16.45;11.43;;;26.20;65.20;;;;;;5013914;28;20160;-77
2021/06/23 10:26:44;;;;;;;7.18;5.53;;;26.00;67.50;;;;;;5013677;28;20046;-77
2021/06/23 10:31:58;;;;;;;8.85;4.70;;;26.00;67.50;;;;;;5014086;28;20093;-77
2021/06/23 10:34:27;;;;;;;5.17;4.00;;;25.80;68.90;;;;;;5015179;28;20077;-77
2021/06/23 10:37:00;;;;;;;6.28;3.97;;;25.40;69.70;;;;;;5012945;28;20359;-77
2021/06/23 10:39:30;;;;;;;6.75;3.50;;;25.20;72.00;;;;;;5013991;28;20073;-77
2021/06/23 10:41:59;;;;;;;6.28;3.83;;;24.80;71.10;;;;;;5014022;28;20046;-76
2021/06/23 10:44:28;;;;;;;6.38;4.13;;;24.70;71.00;;;;;;5016965;28;20045;-76
2021/06/23 10:46:56;;;;;;;6.82;4.25;;;24.60;71.90;;;;;;5016009;28;20470;-77
2021/06/23 10:49:42;;;;;;;14.30;7.85;;;24.60;73.80;;;;;;5019430;28;20383;-76
2021/06/23 10:52:37;;;;;;;10.82;8.82;;;24.80;73.90;;;;;;5018904;28;20045;-77
2021/06/23 10:55:07;;;;;;;9.68;7.82;;;25.00;74.40;;;;;;5000796;28;20042;-78
2021/06/23 10:57:42;;;;;;;11.83;5.90;;;24.80;73.80;;;;;;5017096;28;20045;-76
2021/06/23 11:00:28;;;;;;;7.22;3.97;;;24.80;73.40;;;;;;5018490;28;20050;-77
2021/06/23 11:03:08;;;;;;;9.43;4.30;;;24.30;75.70;;;;;;5017650;28;20046;-77
2021/06/23 11:05:44;;;;;;;11.45;7.50;;;24.10;75.60;;;;;;5017723;28;20045;-77
2021/06/23 11:08:31;;;;;;;22.17;12.52;;;23.90;76.20;;;;;;5017921;28;20571;-77
2021/06/23 11:11:00;;;;;;;10.00;5.50;;;23.80;76.50;;;;;;5017383;28;20497;-77
2021/06/23 11:13:28;;;;;;;6.15;5.03;;;23.80;76.60;;;;;;5018149;28;20046;-77
2021/06/23 11:15:55;;;;;;;9.55;6.57;;;24.00;77.80;;;;;;5017910;28;20045;-78
2021/06/23 11:18:25;;;;;;;8.38;5.80;;;24.00;76.30;;;;;;5017154;28;20038;-77
2021/06/23 11:21:04;;;;;;;8.13;4.05;;;23.90;77.20;;;;;;5023048;28;20056;-77
2021/06/23 11:23:41;;;;;;;10.45;6.90;;;23.80;77.90;;;;;;5016689;28;20061;-77
2021/06/23 11:26:09;;;;;;;27.30;17.30;;;23.80;78.30;;;;;;5014267;28;20130;-77
2021/06/23 11:28:36;;;;;;;10.77;6.60;;;24.00;78.40;;;;;;5014264;28;20046;-77
2021/06/23 11:31:06;;;;;;;7.50;3.80;;;23.90;77.90;;;;;;5013522;28;20092;-76
2021/06/23 11:33:44;;;;;;;9.20;6.70;;;23.90;77.90;;;;;;5012346;28;20057;-76
2021/06/23 11:36:15;;;;;;;10.02;6.43;;;23.90;78.50;;;;;;5012790;28;20049;-77
2021/06/23 11:38:43;;;;;;;6.72;4.60;;;23.90;78.40;;;;;;5013052;28;20050;-77
2021/06/23 11:41:10;;;;;;;15.88;12.63;;;24.00;76.60;;;;;;5017461;28;20054;-76
2021/06/23 11:43:37;;;;;;;23.77;18.77;;;24.20;77.10;;;;;;5016794;28;20045;-77
2021/06/23 11:46:05;;;;;;;7.38;4.93;;;24.20;76.10;;;;;;5017202;28;20104;-77
2021/06/23 11:48:51;;;;;;;8.98;5.78;;;24.10;76.60;;;;;;5016515;28;20141;-79
2021/06/23 11:51:20;;;;;;;3.55;3.15;;;24.00;76.70;;;;;;5018164;28;20053;-77
2021/06/23 11:53:46;;;;;;;8.07;4.35;;;23.70;78.50;;;;;;5017926;28;20462;-78
2021/06/23 11:56:13;;;;;;;9.35;6.70;;;23.60;79.70;;;;;;5017803;28;20046;-78
2021/06/23 11:58:39;;;;;;;8.35;6.13;;;23.50;79.70;;;;;;5016787;28;20120;-77
2021/06/23 12:01:08;;;;;;;10.75;8.23;;;23.50;80.30;;;;;;5016534;28;20054;-78
2021/06/23 12:03:34;;;;;;;6.65;5.55;;;23.40;78.40;;;;;;5017160;28;20120;-78
2021/06/23 12:06:02;;;;;;;9.45;7.57;;;23.40;79.30;;;;;;5019266;28;20046;-77
2021/06/23 12:08:30;;;;;;;11.05;6.07;;;23.20;81.10;;;;;;5016340;28;20041;-78
2021/06/23 12:10:56;;;;;;;3.72;3.42;;;23.00;80.60;;;;;;5016341;28;20046;-77
2021/06/23 12:13:23;;;;;;;7.40;4.80;;;22.80;81.20;;;;;;5016282;28;20045;-77
2021/06/23 12:15:51;;;;;;;10.90;6.07;;;22.60;81.90;;;;;;5016240;28;20053;-77
2021/06/23 12:18:18;;;;;;;5.78;4.82;;;22.40;83.30;;;;;;5016792;28;20054;-78
2021/06/23 12:20:45;;;;;;;8.95;6.75;;;22.30;86.20;;;;;;5018067;28;20100;-78
2021/06/23 12:23:12;;;;;;;10.90;5.60;;;22.10;86.80;;;;;;5015724;28;20180;-76
2021/06/23 12:25:41;;;;;;;6.05;4.93;;;21.80;88.20;;;;;;5016351;28;20050;-78
2021/06/23 12:28:10;;;;;;;6.57;4.05;;;21.80;90.20;;;;;;5016360;28;20141;-78
2021/06/23 12:30:38;;;;;;;9.40;4.57;;;21.50;92.40;;;;;;5018958;28;20578;-78
2021/06/23 12:33:08;;;;;;;6.78;4.53;;;21.30;92.80;;;;;;5016033;28;20049;-77
2021/06/23 12:35:35;;;;;;;5.10;4.40;;;21.30;94.40;;;;;;5015637;28;20041;-77
2021/06/23 12:38:02;;;;;;;8.00;5.85;;;21.10;95.90;;;;;;5016481;28;20050;-79
2021/06/23 12:40:29;;;;;;;11.63;7.88;;;21.00;97.30;;;;;;5016615;28;20041;-78
2021/06/23 12:42:57;;;;;;;13.60;9.40;;;20.90;99.90;;;;;;5016091;28;20046;-78
2021/06/23 12:45:23;;;;;;;12.90;9.32;;;20.90;99.90;;;;;;5016223;28;20092;-78
2021/06/23 12:48:04;;;;;;;10.23;8.25;;;21.00;99.90;;;;;;5016386;28;20050;-78
2021/06/23 12:50:32;;;;;;;13.80;8.93;;;21.10;99.90;;;;;;5016554;28;20050;-78
2021/06/23 12:53:01;;;;;;;15.73;10.57;;;21.00;99.90;;;;;;5015828;28;20041;-77
2021/06/23 12:55:29;;;;;;;13.77;9.38;;;21.10;99.90;;;;;;5015298;28;20571;-77
2021/06/23 12:58:10;;;;;;;13.48;10.15;;;21.10;99.90;;;;;;5017273;28;20088;-78
2021/06/23 13:00:37;;;;;;;10.45;7.85;;;21.30;99.90;;;;;;4999359;28;20466;-78
2021/06/23 13:03:04;;;;;;;12.13;8.10;;;21.50;99.90;;;;;;5017529;28;20050;-77
2021/06/23 13:05:31;;;;;;;18.75;10.43;;;21.80;99.90;;;;;;5015767;28;20073;-77
2021/06/23 13:07:58;;;;;;;9.05;6.72;;;21.90;99.90;;;;;;5014904;28;20158;-78
2021/06/23 13:10:27;;;;;;;10.27;6.03;;;22.10;99.90;;;;;;5022143;28;20077;-78
2021/06/23 13:12:54;;;;;;;8.57;6.90;;;22.10;99.90;;;;;;5015011;28;20057;-77
2021/06/23 13:15:22;;;;;;;12.15;7.32;;;22.40;99.90;;;;;;5015740;28;20046;-78
2021/06/23 13:17:49;;;;;;;8.75;4.70;;;22.70;99.90;;;;;;5016456;28;20046;-77
2021/06/23 13:20:20;;;;;;;8.32;5.13;;;22.90;99.90;;;;;;5016905;28;20046;-77
2021/06/23 13:22:47;;;;;;;10.10;8.90;;;23.00;99.90;;;;;;5015959;28;20481;-78
2021/06/23 13:25:14;;;;;;;5.72;5.00;;;23.00;99.90;;;;;;5015727;28;20097;-77